sensor_id;sensor_type;location;lat;lon;timestamp;pressure;altitude;pressure_sealevel;temperature;humidity
42001;BME280;27689;48.390;10.856;2023-04-03T00:02:26;96746.13;;;3.25;83.72
42001;BME280;27689;48.390;10.856;2023-04-03T00:05:11;96742.03;;;3.21;84.68
42001;BME280;27689;48.390;10.856;2023-04-03T00:07:55;96744.63;;;3.21;83.05
42001;BME280;27689;48.390;10.856;2023-04-03T00:10:39;96744.38;;;3.25;82.63
42001;BME280;27689;48.390;10.856;2023-04-03T00:13:23;96738.84;;;3.15;84.21
42001;BME280;27689;48.390;10.856;2023-04-03T00:16:08;96737.94;;;3.16;83.83
42001;BME280;27689;48.390;10.856;2023-04-03T00:18:53;96736.19;;;3.17;83.62
42001;BME280;27689;48.390;10.856;2023-04-03T00:21:37;96734.78;;;3.11;84.89
42001;BME280;27689;48.390;10.856;2023-04-03T00:24:21;96738.28;;;3.10;84.57
42001;BME280;27689;48.390;10.856;2023-04-03T00:27:05;96729.63;;;3.11;83.88
42001;BME280;27689;48.390;10.856;2023-04-03T00:29:49;96738.53;;;3.22;82.05
42001;BME280;27689;48.390;10.856;2023-04-03T00:32:33;96733.69;;;3.15;82.45
42001;BME280;27689;48.390;10.856;2023-04-03T00:35:18;96736.53;;;3.11;84.11
42001;BME280;27689;48.390;10.856;2023-04-03T00:38:02;96734.88;;;3.10;83.66
42001;BME280;27689;48.390;10.856;2023-04-03T00:40:48;96740.97;;;3.09;84.13
42001;BME280;27689;48.390;10.856;2023-04-03T00:43:32;96736.88;;;3.05;84.22
42001;BME280;27689;48.390;10.856;2023-04-03T00:46:16;96728.19;;;3.06;82.88
42001;BME280;27689;48.390;10.856;2023-04-03T00:49:00;96735.72;;;3.10;81.83
42001;BME280;27689;48.390;10.856;2023-04-03T00:51:44;96727.03;;;3.11;81.33
42001;BME280;27689;48.390;10.856;2023-04-03T00:54:29;96730.69;;;3.07;81.35
42001;BME280;27689;48.390;10.856;2023-04-03T00:57:14;96732.63;;;3.04;81.33
42001;BME280;27689;48.390;10.856;2023-04-03T01:00:08;96730.84;;;3.04;80.57
42001;BME280;27689;48.390;10.856;2023-04-03T01:02:52;96728.34;;;3.03;80.42
42001;BME280;27689;48.390;10.856;2023-04-03T01:05:37;96731.03;;;3.01;80.58
42001;BME280;27689;48.390;10.856;2023-04-03T01:08:21;96725.09;;;2.99;80.14
42001;BME280;27689;48.390;10.856;2023-04-03T01:11:05;96726.69;;;3.02;80.35
42001;BME280;27689;48.390;10.856;2023-04-03T01:13:49;96725.00;;;3.01;81.63
42001;BME280;27689;48.390;10.856;2023-04-03T01:16:33;96725.28;;;2.96;81.05
42001;BME280;27689;48.390;10.856;2023-04-03T01:19:19;96725.28;;;2.96;81.48
42001;BME280;27689;48.390;10.856;2023-04-03T01:22:19;96726.00;;;2.98;81.66
42001;BME280;27689;48.390;10.856;2023-04-03T01:25:07;96726.94;;;2.97;82.31
42001;BME280;27689;48.390;10.856;2023-04-03T01:27:51;96734.69;;;2.97;82.95
42001;BME280;27689;48.390;10.856;2023-04-03T01:30:41;96725.28;;;2.96;83.26
42001;BME280;27689;48.390;10.856;2023-04-03T01:33:27;96725.00;;;3.01;81.58
42001;BME280;27689;48.390;10.856;2023-04-03T01:36:24;96727.53;;;3.02;80.93
42001;BME280;27689;48.390;10.856;2023-04-03T01:39:09;96729.84;;;3.07;79.24
42001;BME280;27689;48.390;10.856;2023-04-03T01:41:53;96729.78;;;3.08;79.00
42001;BME280;27689;48.390;10.856;2023-04-03T01:44:37;96734.97;;;3.08;78.39
42001;BME280;27689;48.390;10.856;2023-04-03T01:47:21;96731.84;;;3.02;79.49
42001;BME280;27689;48.390;10.856;2023-04-03T01:50:06;96735.66;;;2.96;80.74
42001;BME280;27689;48.390;10.856;2023-04-03T01:52:50;96729.03;;;3.06;79.58
42001;BME280;27689;48.390;10.856;2023-04-03T01:55:34;96734.19;;;3.06;79.25
42001;BME280;27689;48.390;10.856;2023-04-03T01:58:18;96729.03;;;3.06;79.25
42001;BME280;27689;48.390;10.856;2023-04-03T02:01:02;96721.75;;;2.97;80.95
42001;BME280;27689;48.390;10.856;2023-04-03T02:03:46;96722.94;;;2.92;81.65
42001;BME280;27689;48.390;10.856;2023-04-03T02:06:29;96714.44;;;2.90;82.27
42001;BME280;27689;48.390;10.856;2023-04-03T02:09:14;96717.78;;;2.92;81.50
42001;BME280;27689;48.390;10.856;2023-04-03T02:11:58;96718.78;;;2.89;81.33
42001;BME280;27689;48.390;10.856;2023-04-03T02:14:43;96728.13;;;2.92;81.87
42001;BME280;27689;48.390;10.856;2023-04-03T02:17:27;96720.53;;;2.89;82.75
42001;BME280;27689;48.390;10.856;2023-04-03T02:20:11;96726.28;;;2.94;82.23
42001;BME280;27689;48.390;10.856;2023-04-03T02:22:55;96719.44;;;2.93;83.51
42001;BME280;27689;48.390;10.856;2023-04-03T02:25:39;96728.13;;;2.92;83.23
42001;BME280;27689;48.390;10.856;2023-04-03T02:28:23;96728.97;;;2.92;83.63
42001;BME280;27689;48.390;10.856;2023-04-03T02:31:08;96726.38;;;2.92;83.98
42001;BME280;27689;48.390;10.856;2023-04-03T02:33:52;96722.03;;;2.93;83.47
42001;BME280;27689;48.390;10.856;2023-04-03T02:36:36;96729.44;;;2.99;83.56
42001;BME280;27689;48.390;10.856;2023-04-03T02:39:21;96724.34;;;2.97;82.76
42001;BME280;27689;48.390;10.856;2023-04-03T02:42:05;96720.94;;;2.97;83.92
42001;BME280;27689;48.390;10.856;2023-04-03T02:44:48;96724.59;;;3.08;81.61
42001;BME280;27689;48.390;10.856;2023-04-03T02:47:32;96719.28;;;2.96;83.17
42001;BME280;27689;48.390;10.856;2023-04-03T02:50:16;96723.88;;;2.91;83.68
42001;BME280;27689;48.390;10.856;2023-04-03T02:53:00;96722.88;;;2.93;84.26
42001;BME280;27689;48.390;10.856;2023-04-03T02:55:44;96722.69;;;2.96;83.32
42001;BME280;27689;48.390;10.856;2023-04-03T02:58:29;96729.53;;;2.97;84.00
42001;BME280;27689;48.390;10.856;2023-04-03T03:01:13;96719.44;;;2.93;83.78
42001;BME280;27689;48.390;10.856;2023-04-03T03:03:59;96726.94;;;2.97;83.31
42001;BME280;27689;48.390;10.856;2023-04-03T03:06:43;96721.28;;;2.91;83.93
42001;BME280;27689;48.390;10.856;2023-04-03T03:09:27;96722.69;;;2.96;83.92
42001;BME280;27689;48.390;10.856;2023-04-03T03:12:11;96730.97;;;2.87;85.37
42001;BME280;27689;48.390;10.856;2023-04-03T03:14:55;96725.19;;;2.98;83.38
42001;BME280;27689;48.390;10.856;2023-04-03T03:17:39;96727.38;;;2.90;84.01
42001;BME280;27689;48.390;10.856;2023-04-03T03:20:23;96722.34;;;2.87;84.77
42001;BME280;27689;48.390;10.856;2023-04-03T03:23:07;96721.88;;;2.80;84.93
42001;BME280;27689;48.390;10.856;2023-04-03T03:25:58;96726.03;;;2.82;85.01
42001;BME280;27689;48.390;10.856;2023-04-03T03:28:43;96716.50;;;2.83;85.36
42001;BME280;27689;48.390;10.856;2023-04-03T03:31:26;96723.44;;;2.82;84.18
42001;BME280;27689;48.390;10.856;2023-04-03T03:34:10;96721.88;;;2.80;84.85
42001;BME280;27689;48.390;10.856;2023-04-03T03:36:55;96710.78;;;2.78;84.95
42001;BME280;27689;48.390;10.856;2023-04-03T03:39:39;96717.69;;;2.77;86.50
42001;BME280;27689;48.390;10.856;2023-04-03T03:42:23;96718.53;;;2.78;86.78
42001;BME280;27689;48.390;10.856;2023-04-03T03:45:07;96716.13;;;2.75;87.11
42001;BME280;27689;48.390;10.856;2023-04-03T03:47:51;96716.94;;;2.75;87.00
42001;BME280;27689;48.390;10.856;2023-04-03T03:50:36;96714.84;;;2.82;85.85
42001;BME280;27689;48.390;10.856;2023-04-03T03:53:19;96721.03;;;2.79;87.06
42001;BME280;27689;48.390;10.856;2023-04-03T03:56:04;96722.97;;;2.76;87.37
42001;BME280;27689;48.390;10.856;2023-04-03T03:58:48;96725.03;;;2.69;88.86
42001;BME280;27689;48.390;10.856;2023-04-03T04:01:33;96725.88;;;2.70;89.01
42001;BME280;27689;48.390;10.856;2023-04-03T04:04:17;96735.22;;;2.72;88.79
42001;BME280;27689;48.390;10.856;2023-04-03T04:07:01;96729.13;;;2.73;87.88
42001;BME280;27689;48.390;10.856;2023-04-03T04:09:45;96735.13;;;2.74;88.28
42001;BME280;27689;48.390;10.856;2023-04-03T04:12:28;96731.56;;;2.76;87.51
42001;BME280;27689;48.390;10.856;2023-04-03T04:15:12;96733.56;;;2.71;88.00
42001;BME280;27689;48.390;10.856;2023-04-03T04:17:56;96736.88;;;2.73;87.69
42001;BME280;27689;48.390;10.856;2023-04-03T04:20:40;96740.41;;;2.72;87.77
42001;BME280;27689;48.390;10.856;2023-04-03T04:23:24;96735.91;;;2.76;86.27
42001;BME280;27689;48.390;10.856;2023-04-03T04:26:08;96738.56;;;2.74;86.69
42001;BME280;27689;48.390;10.856;2023-04-03T04:28:52;96743.75;;;2.74;86.21
42001;BME280;27689;48.390;10.856;2023-04-03T04:31:36;96742.56;;;2.64;87.26
42001;BME280;27689;48.390;10.856;2023-04-03T04:34:21;96728.13;;;2.60;87.22
42001;BME280;27689;48.390;10.856;2023-04-03T04:37:04;96745.81;;;2.68;87.21
42001;BME280;27689;48.390;10.856;2023-04-03T04:39:48;96745.25;;;2.63;87.93
42001;BME280;27689;48.390;10.856;2023-04-03T04:42:32;96741.06;;;2.60;88.69
42001;BME280;27689;48.390;10.856;2023-04-03T04:45:17;96742.56;;;2.80;86.28
42001;BME280;27689;48.390;10.856;2023-04-03T04:48:00;96742.31;;;2.69;87.28
42001;BME280;27689;48.390;10.856;2023-04-03T04:50:44;96743.22;;;2.68;87.29
42001;BME280;27689;48.390;10.856;2023-04-03T04:53:29;96737.47;;;2.63;88.17
42001;BME280;27689;48.390;10.856;2023-04-03T04:56:13;96746.00;;;2.65;88.80
42001;BME280;27689;48.390;10.856;2023-04-03T04:58:57;96743.56;;;2.62;89.20
42001;BME280;27689;48.390;10.856;2023-04-03T05:01:41;96744.41;;;2.62;88.96
42001;BME280;27689;48.390;10.856;2023-04-03T05:04:24;96744.66;;;2.58;89.25
42001;BME280;27689;48.390;10.856;2023-04-03T05:07:08;96743.72;;;2.59;89.22
42001;BME280;27689;48.390;10.856;2023-04-03T05:09:52;96753.69;;;2.66;88.15
42001;BME280;27689;48.390;10.856;2023-04-03T05:12:36;96750.91;;;2.69;87.31
42001;BME280;27689;48.390;10.856;2023-04-03T05:15:20;96741.00;;;2.62;88.72
42001;BME280;27689;48.390;10.856;2023-04-03T05:18:04;96750.34;;;2.64;88.56
42001;BME280;27689;48.390;10.856;2023-04-03T05:20:49;96749.59;;;2.62;88.48
42001;BME280;27689;48.390;10.856;2023-04-03T05:23:34;96753.16;;;2.60;89.08
42001;BME280;27689;48.390;10.856;2023-04-03T05:26:17;96750.50;;;2.61;89.38
42001;BME280;27689;48.390;10.856;2023-04-03T05:29:02;96753.75;;;2.65;89.38
42001;BME280;27689;48.390;10.856;2023-04-03T05:31:46;96750.06;;;2.69;88.22
42001;BME280;27689;48.390;10.856;2023-04-03T05:34:32;96755.44;;;2.66;88.13
42001;BME280;27689;48.390;10.856;2023-04-03T05:37:16;96763.91;;;2.68;87.64
42001;BME280;27689;48.390;10.856;2023-04-03T05:40:00;96762.16;;;2.68;87.91
42001;BME280;27689;48.390;10.856;2023-04-03T05:42:44;96763.34;;;2.63;88.79
42001;BME280;27689;48.390;10.856;2023-04-03T05:45:28;96763.44;;;2.61;89.46
42001;BME280;27689;48.390;10.856;2023-04-03T05:48:12;96757.41;;;2.61;89.69
42001;BME280;27689;48.390;10.856;2023-04-03T05:50:56;96770.13;;;2.65;89.23
42001;BME280;27689;48.390;10.856;2023-04-03T05:53:41;96770.94;;;2.66;89.85
42001;BME280;27689;48.390;10.856;2023-04-03T05:56:25;96763.75;;;2.71;88.58
42001;BME280;27689;48.390;10.856;2023-04-03T05:59:09;96769.69;;;2.73;88.34
42001;BME280;27689;48.390;10.856;2023-04-03T06:01:53;96769.69;;;2.73;87.77
42001;BME280;27689;48.390;10.856;2023-04-03T06:04:37;96779.97;;;2.74;87.85
42001;BME280;27689;48.390;10.856;2023-04-03T06:07:23;96773.44;;;2.67;88.86
42001;BME280;27689;48.390;10.856;2023-04-03T06:10:11;96774.38;;;2.66;89.81
42001;BME280;27689;48.390;10.856;2023-04-03T06:12:56;96777.13;;;2.63;91.26
42001;BME280;27689;48.390;10.856;2023-04-03T06:15:40;96780.69;;;2.61;92.03
42001;BME280;27689;48.390;10.856;2023-04-03T06:18:24;96783.13;;;2.64;92.53
42001;BME280;27689;48.390;10.856;2023-04-03T06:21:08;96781.88;;;2.71;90.85
42001;BME280;27689;48.390;10.856;2023-04-03T06:23:52;96780.72;;;2.76;90.46
42001;BME280;27689;48.390;10.856;2023-04-03T06:26:36;96784.81;;;2.80;90.89
42001;BME280;27689;48.390;10.856;2023-04-03T06:29:20;96781.47;;;2.78;91.15
42001;BME280;27689;48.390;10.856;2023-04-03T06:32:04;96786.06;;;2.89;89.64
42001;BME280;27689;48.390;10.856;2023-04-03T06:34:48;96784.13;;;2.93;89.35
42001;BME280;27689;48.390;10.856;2023-04-03T06:37:32;96784.22;;;2.91;90.10
42001;BME280;27689;48.390;10.856;2023-04-03T06:40:21;96782.38;;;2.93;90.51
42001;BME280;27689;48.390;10.856;2023-04-03T06:43:05;96792.47;;;2.98;91.34
42001;BME280;27689;48.390;10.856;2023-04-03T06:45:49;96792.91;;;3.06;89.85
42001;BME280;27689;48.390;10.856;2023-04-03T06:48:32;96788.19;;;3.12;89.04
42001;BME280;27689;48.390;10.856;2023-04-03T06:51:22;96787.13;;;3.01;89.88
42001;BME280;27689;48.390;10.856;2023-04-03T06:54:06;96791.16;;;3.06;91.09
42001;BME280;27689;48.390;10.856;2023-04-03T06:56:52;96796.16;;;3.09;90.90
42001;BME280;27689;48.390;10.856;2023-04-03T06:59:36;96797.31;;;3.19;90.37
42001;BME280;27689;48.390;10.856;2023-04-03T07:02:20;96785.88;;;3.24;89.30
42001;BME280;27689;48.390;10.856;2023-04-03T07:05:04;96788.09;;;3.30;89.66
42001;BME280;27689;48.390;10.856;2023-04-03T07:07:49;96795.38;;;3.39;90.28
42001;BME280;27689;48.390;10.856;2023-04-03T07:10:34;96802.94;;;3.42;90.17
42001;BME280;27689;48.390;10.856;2023-04-03T07:13:18;96800.94;;;3.47;90.64
42001;BME280;27689;48.390;10.856;2023-04-03T07:16:03;96803.03;;;3.56;90.99
42001;BME280;27689;48.390;10.856;2023-04-03T07:18:48;96805.25;;;3.62;87.64
42001;BME280;27689;48.390;10.856;2023-04-03T07:21:32;96804.34;;;3.63;87.16
42001;BME280;27689;48.390;10.856;2023-04-03T07:24:16;96812.28;;;3.60;89.47
42001;BME280;27689;48.390;10.856;2023-04-03T07:27:00;96817.13;;;3.66;88.16
42001;BME280;27689;48.390;10.856;2023-04-03T07:29:45;96817.50;;;3.74;85.37
42001;BME280;27689;48.390;10.856;2023-04-03T07:32:29;96817.13;;;3.66;86.67
42001;BME280;27689;48.390;10.856;2023-04-03T07:35:13;96822.97;;;3.70;87.71
42001;BME280;27689;48.390;10.856;2023-04-03T07:37:57;96819.25;;;3.74;88.38
42001;BME280;27689;48.390;10.856;2023-04-03T07:40:45;96824.94;;;3.80;87.71
42001;BME280;27689;48.390;10.856;2023-04-03T07:43:30;96826.44;;;3.84;86.17
42001;BME280;27689;48.390;10.856;2023-04-03T07:46:14;96834.59;;;3.93;87.05
42001;BME280;27689;48.390;10.856;2023-04-03T07:48:57;96829.16;;;3.97;87.59
42001;BME280;27689;48.390;10.856;2023-04-03T07:51:41;96825.56;;;4.00;86.95
42001;BME280;27689;48.390;10.856;2023-04-03T07:54:25;96831.28;;;4.05;87.64
42001;BME280;27689;48.390;10.856;2023-04-03T07:57:09;96835.88;;;4.15;88.11
42001;BME280;27689;48.390;10.856;2023-04-03T07:59:54;96832.31;;;4.16;84.69
42001;BME280;27689;48.390;10.856;2023-04-03T08:02:38;96829.56;;;4.19;85.57
42001;BME280;27689;48.390;10.856;2023-04-03T08:05:22;96842.19;;;4.25;86.33
42001;BME280;27689;48.390;10.856;2023-04-03T08:08:06;96831.34;;;4.33;86.14
42001;BME280;27689;48.390;10.856;2023-04-03T08:10:52;96827.72;;;4.36;86.63
42001;BME280;27689;48.390;10.856;2023-04-03T08:13:36;96831.81;;;4.40;86.52
42001;BME280;27689;48.390;10.856;2023-04-03T08:16:22;96835.16;;;4.42;85.45
42001;BME280;27689;48.390;10.856;2023-04-03T08:19:07;96838.13;;;4.50;85.38
42001;BME280;27689;48.390;10.856;2023-04-03T08:21:54;96830.25;;;4.51;83.36
42001;BME280;27689;48.390;10.856;2023-04-03T08:24:38;96847.38;;;4.54;84.07
42001;BME280;27689;48.390;10.856;2023-04-03T08:27:23;96842.19;;;4.54;84.30
42001;BME280;27689;48.390;10.856;2023-04-03T08:30:07;96842.84;;;4.57;84.28
42001;BME280;27689;48.390;10.856;2023-04-03T08:32:52;96833.84;;;4.63;84.56
42001;BME280;27689;48.390;10.856;2023-04-03T08:35:40;96844.63;;;4.71;82.36
42001;BME280;27689;48.390;10.856;2023-04-03T08:38:25;96837.66;;;4.72;84.48
42001;BME280;27689;48.390;10.856;2023-04-03T08:47:38;96849.16;;;4.82;83.05
42001;BME280;27689;48.390;10.856;2023-04-03T08:50:30;96845.72;;;4.81;81.28
42001;BME280;27689;48.390;10.856;2023-04-03T08:53:26;96846.00;;;4.77;79.92
42001;BME280;27689;48.390;10.856;2023-04-03T08:56:13;96847.22;;;4.85;80.27
42001;BME280;27689;48.390;10.856;2023-04-03T08:59:11;96843.19;;;4.94;80.42
42001;BME280;27689;48.390;10.856;2023-04-03T09:01:58;96844.59;;;5.00;81.24
42001;BME280;27689;48.390;10.856;2023-04-03T09:04:45;96843.75;;;4.99;79.52
42001;BME280;27689;48.390;10.856;2023-04-03T09:07:38;96843.09;;;4.95;77.13
42001;BME280;27689;48.390;10.856;2023-04-03T09:10:27;96839.13;;;4.90;79.25
42001;BME280;27689;48.390;10.856;2023-04-03T09:13:13;96851.09;;;4.92;80.25
42001;BME280;27689;48.390;10.856;2023-04-03T09:16:16;96846.44;;;4.97;77.78
42001;BME280;27689;48.390;10.856;2023-04-03T09:19:36;96851.09;;;4.92;81.14
42001;BME280;27689;48.390;10.856;2023-04-03T09:22:24;96839.78;;;4.93;79.53
42001;BME280;27689;48.390;10.856;2023-04-03T09:25:13;96838.94;;;4.93;79.30
42001;BME280;27689;48.390;10.856;2023-04-03T09:27:57;96849.97;;;4.96;80.21
42001;BME280;27689;48.390;10.856;2023-04-03T09:30:43;96849.97;;;4.96;80.69
42001;BME280;27689;48.390;10.856;2023-04-03T09:33:28;96860.44;;;4.95;77.90
42001;BME280;27689;48.390;10.856;2023-04-03T09:36:44;96848.59;;;4.77;78.17
42001;BME280;27689;48.390;10.856;2023-04-03T09:39:29;96853.25;;;4.86;78.76
42001;BME280;27689;48.390;10.856;2023-04-03T09:42:19;96842.19;;;4.96;79.16
42001;BME280;27689;48.390;10.856;2023-04-03T09:45:05;96843.59;;;4.88;76.69
42001;BME280;27689;48.390;10.856;2023-04-03T09:48:06;96841.44;;;4.94;76.46
42001;BME280;27689;48.390;10.856;2023-04-03T09:56:27;96845.63;;;4.97;78.95
42001;BME280;27689;48.390;10.856;2023-04-03T09:59:15;96836.53;;;5.04;76.72
42001;BME280;27689;48.390;10.856;2023-04-03T10:02:22;96850.13;;;5.22;78.35
42001;BME280;27689;48.390;10.856;2023-04-03T10:05:34;96848.72;;;5.30;75.92
42001;BME280;27689;48.390;10.856;2023-04-03T10:11:16;96836.84;;;5.26;75.09
42001;BME280;27689;48.390;10.856;2023-04-03T10:14:02;96843.81;;;5.26;75.52
42001;BME280;27689;48.390;10.856;2023-04-03T10:16:52;96831.84;;;5.23;74.72
42001;BME280;27689;48.390;10.856;2023-04-03T10:19:57;96835.75;;;5.16;74.91
42001;BME280;27689;48.390;10.856;2023-04-03T10:25:48;96836.88;;;5.12;74.80
42001;BME280;27689;48.390;10.856;2023-04-03T10:28:57;96844.66;;;5.12;75.74
42001;BME280;27689;48.390;10.856;2023-04-03T10:32:19;96828.34;;;5.10;74.81
42001;BME280;27689;48.390;10.856;2023-04-03T10:35:18;96838.00;;;5.08;75.31
42001;BME280;27689;48.390;10.856;2023-04-03T10:38:13;96838.63;;;5.12;75.93
42001;BME280;27689;48.390;10.856;2023-04-03T10:41:07;96831.19;;;5.20;76.40
42001;BME280;27689;48.390;10.856;2023-04-03T10:50:48;96847.09;;;5.15;73.46
42001;BME280;27689;48.390;10.856;2023-04-03T10:53:13;96835.66;;;5.18;74.89
42001;BME280;27689;48.390;10.856;2023-04-03T10:56:14;96833.50;;;5.24;74.46
42001;BME280;27689;48.390;10.856;2023-04-03T11:02:37;96845.19;;;5.31;73.77
42001;BME280;27689;48.390;10.856;2023-04-03T11:05:35;96833.50;;;5.24;74.43
42001;BME280;27689;48.390;10.856;2023-04-03T11:11:25;96826.91;;;5.33;75.02
42001;BME280;27689;48.390;10.856;2023-04-03T11:14:25;96827.34;;;5.40;75.30
42001;BME280;27689;48.390;10.856;2023-04-03T11:17:21;96830.50;;;5.45;75.21
42001;BME280;27689;48.390;10.856;2023-04-03T11:23:37;96832.53;;;5.40;68.87
42001;BME280;27689;48.390;10.856;2023-04-03T11:26:26;96824.59;;;5.28;70.58
42001;BME280;27689;48.390;10.856;2023-04-03T11:29:15;96821.03;;;5.17;70.72
42001;BME280;27689;48.390;10.856;2023-04-03T11:32:27;96818.59;;;5.14;72.56
42001;BME280;27689;48.390;10.856;2023-04-03T11:35:11;96815.28;;;4.97;71.22
42001;BME280;27689;48.390;10.856;2023-04-03T11:37:57;96812.19;;;5.05;73.33
42001;BME280;27689;48.390;10.856;2023-04-03T11:40:44;96816.66;;;5.17;73.52
42001;BME280;27689;48.390;10.856;2023-04-03T11:43:30;96813.38;;;5.28;73.48
42001;BME280;27689;48.390;10.856;2023-04-03T11:46:15;96809.09;;;5.27;71.46
42001;BME280;27689;48.390;10.856;2023-04-03T11:49:02;96805.28;;;5.32;73.52
42001;BME280;27689;48.390;10.856;2023-04-03T11:51:46;96810.53;;;5.45;72.54
42001;BME280;27689;48.390;10.856;2023-04-03T11:54:56;96793.31;;;5.30;69.61
42001;BME280;27689;48.390;10.856;2023-04-03T12:01:10;96809.06;;;5.41;69.14
42001;BME280;27689;48.390;10.856;2023-04-03T12:04:06;96808.03;;;5.44;69.95
42001;BME280;27689;48.390;10.856;2023-04-03T12:07:20;96808.41;;;5.64;70.94
42001;BME280;27689;48.390;10.856;2023-04-03T12:10:14;96804.19;;;5.76;69.46
42001;BME280;27689;48.390;10.856;2023-04-03T12:13:00;96806.66;;;5.92;69.34
42001;BME280;27689;48.390;10.856;2023-04-03T12:15:49;96789.50;;;6.02;68.19
42001;BME280;27689;48.390;10.856;2023-04-03T12:18:59;96787.28;;;6.09;67.74
42001;BME280;27689;48.390;10.856;2023-04-03T12:24:35;96786.25;;;6.24;67.44
42001;BME280;27689;48.390;10.856;2023-04-03T12:27:36;96783.25;;;6.30;65.46
42001;BME280;27689;48.390;10.856;2023-04-03T12:30:25;96780.75;;;6.28;64.72
42001;BME280;27689;48.390;10.856;2023-04-03T12:33:42;96780.03;;;6.39;63.65
42001;BME280;27689;48.390;10.856;2023-04-03T12:36:44;96776.72;;;6.37;61.89
42001;BME280;27689;48.390;10.856;2023-04-03T12:39:43;96768.78;;;6.38;64.53
42001;BME280;27689;48.390;10.856;2023-04-03T12:45:47;96772.72;;;6.82;63.87
42001;BME280;27689;48.390;10.856;2023-04-03T12:48:52;96762.66;;;6.89;62.65
42001;BME280;27689;48.390;10.856;2023-04-03T12:51:44;96752.31;;;7.00;62.40
42001;BME280;27689;48.390;10.856;2023-04-03T12:54:37;96755.22;;;7.08;62.45
42001;BME280;27689;48.390;10.856;2023-04-03T12:57:25;96748.69;;;7.26;59.55
42001;BME280;27689;48.390;10.856;2023-04-03T13:00:35;96749.69;;;7.36;57.18
42001;BME280;27689;48.390;10.856;2023-04-03T13:03:23;96743.19;;;7.77;61.32
42001;BME280;27689;48.390;10.856;2023-04-03T13:06:18;96749.06;;;8.03;58.21
42001;BME280;27689;48.390;10.856;2023-04-03T13:09:02;96736.09;;;7.79;54.25
42001;BME280;27689;48.390;10.856;2023-04-03T13:11:50;96755.44;;;7.53;56.15
42001;BME280;27689;48.390;10.856;2023-04-03T13:14:36;96754.78;;;7.38;53.75
42001;BME280;27689;48.390;10.856;2023-04-03T13:17:21;96754.06;;;7.12;56.80
42001;BME280;27689;48.390;10.856;2023-04-03T13:20:32;96748.03;;;6.99;55.44
42001;BME280;27689;48.390;10.856;2023-04-03T13:23:19;96753.88;;;6.66;55.49
42001;BME280;27689;48.390;10.856;2023-04-03T13:26:05;96759.50;;;6.60;55.77
42001;BME280;27689;48.390;10.856;2023-04-03T13:28:50;96758.91;;;6.44;55.44
42001;BME280;27689;48.390;10.856;2023-04-03T13:31:36;96764.66;;;6.36;56.16
42001;BME280;27689;48.390;10.856;2023-04-03T13:34:22;96762.97;;;6.35;56.33
42001;BME280;27689;48.390;10.856;2023-04-03T13:37:11;96763.59;;;6.26;59.05
42001;BME280;27689;48.390;10.856;2023-04-03T13:43:03;96758.06;;;6.43;59.20
42001;BME280;27689;48.390;10.856;2023-04-03T13:48:44;96750.03;;;6.59;55.70
42001;BME280;27689;48.390;10.856;2023-04-03T13:51:29;96752.00;;;6.55;54.78
42001;BME280;27689;48.390;10.856;2023-04-03T13:54:22;96751.97;;;6.68;54.90
42001;BME280;27689;48.390;10.856;2023-04-03T13:57:13;96740.00;;;6.78;55.59
42001;BME280;27689;48.390;10.856;2023-04-03T13:59:57;96734.91;;;6.77;56.31
42001;BME280;27689;48.390;10.856;2023-04-03T14:02:47;96733.13;;;6.77;54.03
42001;BME280;27689;48.390;10.856;2023-04-03T14:05:32;96733.22;;;6.76;55.59
42001;BME280;27689;48.390;10.856;2023-04-03T14:08:16;96725.94;;;6.68;55.52
42001;BME280;27689;48.390;10.856;2023-04-03T14:11:01;96733.66;;;6.82;56.23
42001;BME280;27689;48.390;10.856;2023-04-03T14:13:45;96719.84;;;6.93;54.82
42001;BME280;27689;48.390;10.856;2023-04-03T14:16:32;96723.22;;;7.30;54.09
42001;BME280;27689;48.390;10.856;2023-04-03T14:19:21;96728.44;;;7.30;51.88
42001;BME280;27689;48.390;10.856;2023-04-03T14:22:26;96729.22;;;7.19;50.97
42001;BME280;27689;48.390;10.856;2023-04-03T14:25:12;96729.84;;;7.23;49.06
42001;BME280;27689;48.390;10.856;2023-04-03T14:27:56;96726.50;;;7.21;50.39
42001;BME280;27689;48.390;10.856;2023-04-03T14:30:41;96729.47;;;7.27;47.03
42001;BME280;27689;48.390;10.856;2023-04-03T14:33:25;96727.13;;;7.24;48.52
42001;BME280;27689;48.390;10.856;2023-04-03T14:36:14;96729.13;;;7.21;48.18
42001;BME280;27689;48.390;10.856;2023-04-03T14:38:59;96723.28;;;7.17;46.54
42001;BME280;27689;48.390;10.856;2023-04-03T14:41:45;96726.84;;;7.16;47.24
42001;BME280;27689;48.390;10.856;2023-04-03T14:44:29;96721.88;;;7.00;47.96
42001;BME280;27689;48.390;10.856;2023-04-03T14:47:16;96713.69;;;6.94;47.91
42001;BME280;27689;48.390;10.856;2023-04-03T14:50:00;96726.41;;;6.86;46.48
42001;BME280;27689;48.390;10.856;2023-04-03T14:52:44;96721.84;;;6.89;49.35
42001;BME280;27689;48.390;10.856;2023-04-03T14:55:29;96726.28;;;7.00;48.49
42001;BME280;27689;48.390;10.856;2023-04-03T14:58:15;96717.50;;;7.01;47.23
42001;BME280;27689;48.390;10.856;2023-04-03T15:00:59;96714.91;;;7.01;47.21
42001;BME280;27689;48.390;10.856;2023-04-03T15:03:43;96713.50;;;6.97;48.41
42001;BME280;27689;48.390;10.856;2023-04-03T15:06:28;96718.91;;;6.94;48.20
42001;BME280;27689;48.390;10.856;2023-04-03T15:09:24;96716.53;;;6.91;49.36
42001;BME280;27689;48.390;10.856;2023-04-03T15:12:09;96716.31;;;6.94;49.13
42001;BME280;27689;48.390;10.856;2023-04-03T15:14:53;96714.78;;;6.79;47.76
42001;BME280;27689;48.390;10.856;2023-04-03T15:17:37;96718.22;;;6.79;49.30
42001;BME280;27689;48.390;10.856;2023-04-03T15:20:24;96708.19;;;6.86;48.75
42001;BME280;27689;48.390;10.856;2023-04-03T15:23:11;96710.59;;;6.89;46.86
42001;BME280;27689;48.390;10.856;2023-04-03T15:25:55;96711.00;;;6.83;48.80
42001;BME280;27689;48.390;10.856;2023-04-03T15:28:41;96715.28;;;6.84;46.54
42001;BME280;27689;48.390;10.856;2023-04-03T15:31:27;96719.34;;;6.88;44.39
42001;BME280;27689;48.390;10.856;2023-04-03T15:34:10;96721.84;;;6.53;45.58
42001;BME280;27689;48.390;10.856;2023-04-03T15:36:55;96721.84;;;6.40;44.77